Latest Coastal Weather Observations for Swanbourne

IDW60701

Issued at 7:32 pm WST Wednesday 27 July 2016 (issued every 10 minutes, with the page automatically refreshed every 10 minutes)

About coastal observations | Map of coastal stations | Coastal observations for WA | Marine services | Other Formats
Station Details ID: 009215 Name: SWANBOURNE Lat: -31.96 Lon: 115.76 Height: 40.96 m
Data from the previous 72 hours. | See also: Recent months at Swanbourne
Date/Time
WST
Temp
°C
Wind Pressure Rain since
9am
mm
Weather Cloud Vis
km
Sea
Height
m
Swell
Dir  Spd
kts
Gust
kts
hPa Trend Height
m
Period
s
Dir
27/07:30pm 14.0 ENE 4 5 - - 0.0 - - - - - - -
27/07:00pm 14.4 ENE 5 5 - - 0.0 - - - - - - -
27/06:30pm 14.9 E 4 5 - - 0.0 - - - - - - -
27/06:00pm 15.2 ENE 4 4 - - 0.0 - - - - - - -
27/05:30pm 15.9 ENE 3 4 - - 0.0 - - - - - - -
27/05:00pm 16.5 ENE 2 3 - - 0.0 - - - - - - -
27/04:30pm 17.2 NE 3 5 - - 0.0 - - - - - - -
27/04:00pm 17.7 NE 3 5 - - 0.0 - - - - - - -
27/03:30pm 18.3 NNE 5 10 - - 0.0 - - - - - - -
27/03:00pm 18.3 NE 4 6 - - 0.0 - - - - - - -
27/02:30pm 18.5 NE 6 10 - - 0.0 - - - - - - -
27/02:00pm 18.9 N 4 8 - - 0.0 - - - - - - -
27/01:30pm 18.1 N 6 10 - - 0.0 - - - - - - -
27/01:00pm 17.8 NNE 6 11 - - 0.0 - - - - - - -
27/12:30pm 17.1 NE 8 14 - - 0.0 - - - - - - -
27/12:00pm 16.6 NE 9 14 - - 0.0 - - - - - - -
27/11:30am 15.8 ENE 9 13 - - 0.0 - - - - - - -
27/11:00am 14.8 ENE 9 14 - - 0.0 - - - - - - -
27/10:30am 13.3 ENE 8 13 - - 0.0 - - - - - - -
27/10:00am 12.7 ENE 10 14 - - 0.0 - - - - - - -
27/09:30am 11.1 E 9 12 - - 0.0 - - - - - - -
27/09:00am 9.7 E 7 10 - - 0.0 - - - - - - -
27/08:30am 8.7 ENE 7 9 - - 0.0 - - - - - - -
27/08:00am 8.0 ENE 7 9 - - 0.0 - - - - - - -
27/07:30am 7.6 ENE 6 8 - - 0.0 - - - - - - -
27/07:00am 7.7 ENE 7 9 - - 0.0 - - - - - - -
27/06:30am 7.9 ENE 6 9 - - 0.0 - - - - - - -
27/06:00am 7.8 ENE 6 8 - - 0.0 - - - - - - -
27/05:30am 8.0 ENE 6 8 - - 0.0 - - - - - - -
27/05:00am 8.0 ENE 6 8 - - 0.0 - - - - - - -
27/04:30am 7.8 ENE 6 7 - - 0.0 - - - - - - -
27/04:00am 8.0 ENE 6 7 - - 0.0 - - - - - - -
27/03:30am 8.0 ENE 6 7 - - 0.0 - - - - - - -
27/03:00am 8.2 E 5 6 - - 0.0 - - - - - - -
27/02:30am 8.6 ENE 4 5 - - 0.0 - - - - - - -
27/02:00am 8.9 E 5 6 - - 0.0 - - - - - - -
27/01:30am 9.1 ENE 3 3 - - 0.0 - - - - - - -
27/01:00am 9.3 E 4 5 - - 0.0 - - - - - - -
27/12:30am 9.7 E 5 6 - - 0.0 - - - - - - -
27/12:00am 10.3 ESE 7 7 - - 0.0 - - - - - - -
 
Date/Time
WST
Temp
°C
Wind Pressure Rain since
9am
mm
Weather Cloud Vis
km
Sea
Height
m
Swell
Dir  Spd
kts
Gust
kts
hPa Trend Height
m
Period
s
Dir
26/11:30pm 10.4 ESE 5 6 - - 0.0 - - - - - - -
26/11:00pm 10.9 ESE 5 6 - - 0.0 - - - - - - -
26/10:30pm 11.0 ESE 5 7 - - 0.0 - - - - - - -
26/10:00pm 11.6 ESE 5 6 - - 0.0 - - - - - - -
26/09:30pm 11.9 ESE 5 7 - - 0.0 - - - - - - -
26/09:00pm 12.5 SE 5 7 - - 0.0 - - - - - - -
26/08:30pm 12.8 SSE 5 6 - - 0.0 - - - - - - -
26/08:00pm 13.2 S 6 7 - - 0.0 - - - - - - -
26/07:30pm 13.4 SSE 5 6 - - 0.0 - - - - - - -
26/07:00pm 13.5 S 5 6 - - 0.0 - - - - - - -
26/06:30pm 13.9 S 5 6 - - 0.0 - - - - - - -
26/06:00pm 14.0 S 4 5 - - 0.0 - - - - - - -
26/05:30pm 14.6 SSW 4 5 - - 0.0 - - - - - - -
26/05:00pm 15.4 SSW 5 7 - - 0.0 - - - - - - -
26/04:30pm 16.1 SSW 5 8 - - 0.0 - - - - - - -
26/04:00pm 16.3 SSW 5 8 - - 0.0 - - - - - - -
26/03:30pm 16.4 SW 5 8 - - 0.0 - - - - - - -
26/03:00pm 16.5 SW 5 7 - - 0.0 - - - - - - -
26/02:30pm 16.5 WSW 5 7 - - 0.0 - - - - - - -
26/02:00pm 17.1 WSW 4 6 - - 0.0 - - - - - - -
26/01:30pm 16.9 W 5 7 - - 0.0 - - - - - - -
26/01:00pm 16.7 W 5 7 - - 0.0 - - - - - - -
26/12:30pm 16.3 WSW 4 5 - - 0.0 - - - - - - -
26/12:00pm 16.8 WSW 4 6 - - 0.0 - - - - - - -
26/11:30am 15.9 S 1 3 - - 0.0 - - - - - - -
26/11:00am 15.9 NE 2 3 - - 0.0 - - - - - - -
26/10:30am 14.9 ENE 3 5 - - 0.0 - - - - - - -
26/10:00am 12.8 ENE 5 7 - - 0.0 - - - - - - -
26/09:30am 11.5 ENE 6 8 - - 0.0 - - - - - - -
26/09:00am 9.9 E 5 7 - - 0.0 - - - - - - -
26/08:30am 8.7 ENE 5 7 - - 0.0 - - - - - - -
26/08:00am 8.2 ENE 4 7 - - 0.0 - - - - - - -
26/07:30am 7.0 NE 5 6 - - 0.0 - - - - - - -
26/07:00am 7.0 NE 5 5 - - 0.0 - - - - - - -
26/06:30am 7.5 ENE 5 6 - - 0.0 - - - - - - -
26/06:00am 7.7 ENE 5 6 - - 0.0 - - - - - - -
26/05:30am 7.4 ENE 5 6 - - 0.0 - - - - - - -
26/05:00am 7.2 ENE 4 5 - - 0.0 - - - - - - -
26/04:30am 7.4 ENE 5 7 - - 0.0 - - - - - - -
26/04:00am 7.9 ENE 4 5 - - 0.0 - - - - - - -
26/03:30am 8.2 ENE 4 6 - - 0.0 - - - - - - -
26/03:00am 8.3 NE 3 5 - - 0.0 - - - - - - -
26/02:30am 8.2 ENE 5 6 - - 0.0 - - - - - - -
26/02:00am 8.1 ENE 5 7 - - 0.0 - - - - - - -
26/01:30am 8.3 ENE 5 6 - - 0.0 - - - - - - -
26/01:00am 8.5 ENE 6 8 - - 0.0 - - - - - - -
26/12:30am 8.6 ENE 5 7 - - 0.0 - - - - - - -
26/12:00am 8.8 ENE 5 7 - - 0.0 - - - - - - -
 
Date/Time
WST
Temp
°C
Wind Pressure Rain since
9am
mm
Weather Cloud Vis
km
Sea
Height
m
Swell
Dir  Spd
kts
Gust
kts
hPa Trend Height
m
Period
s
Dir
25/11:30pm 9.0 ENE 5 7 - - 0.0 - - - - - - -
25/11:00pm 9.6 ENE 5 6 - - 0.0 - - - - - - -
25/10:30pm 9.8 ENE 5 5 - - 0.0 - - - - - - -
25/10:00pm 10.8 ESE 4 5 - - 0.0 - - - - - - -
25/09:30pm 11.7 SE 4 5 - - 0.0 - - - - - - -
25/09:00pm 11.8 SE 3 4 - - 0.0 - - - - - - -
25/08:30pm 11.8 SE 3 4 - - 0.0 - - - - - - -
25/08:00pm 12.3 SSE 3 4 - - 0.0 - - - - - - -
25/07:30pm 12.4 S 4 4 - - 0.0 - - - - - - -
25/07:00pm 12.5 SE 2 3 - - 0.0 - - - - - - -
25/06:30pm 12.5 SSE 4 5 - - 0.0 - - - - - - -
25/06:00pm 13.0 S 4 6 - - 0.0 - - - - - - -
25/05:30pm 13.4 S 5 7 - - 0.0 - - - - - - -
25/05:00pm 14.2 SSW 7 9 - - 0.0 - - - - - - -
25/04:30pm 14.9 SSW 6 9 - - 0.0 - - - - - - -
25/04:00pm 15.4 SSW 6 10 - - 0.0 - - - - - - -
25/03:30pm 15.6 SSE 5 9 - - 0.0 - - - - - - -
25/03:00pm 15.7 SSE 6 10 - - 0.0 - - - - - - -
25/02:30pm 15.2 SSE 5 9 - - 0.0 - - - - - - -
25/02:00pm 15.9 SSE 5 9 - - 0.0 - - - - - - -
25/01:30pm 15.8 SSE 6 10 - - 0.0 - - - - - - -
25/01:00pm 14.9 SSE 6 10 - - 0.0 - - - - - - -
25/12:30pm 15.1 SE 6 11 - - 0.0 - - - - - - -
25/12:00pm 15.4 SSE 7 11 - - 0.0 - - - - - - -
25/11:30am 14.9 SE 6 10 - - 0.0 - - - - - - -
25/11:00am 14.4 SE 6 9 - - 0.0 - - - - - - -
25/10:30am 13.9 ESE 6 10 - - 0.0 - - - - - - -
25/10:00am 13.3 ESE 5 8 - - 0.0 - - - - - - -
25/09:30am 12.7 E 7 10 - - 0.0 - - - - - - -
25/09:00am 12.0 ENE 3 5 - - 0.0 - - - - - - -
25/08:30am 11.2 E 3 4 - - 0.0 - - - - - - -
25/08:00am 9.3 E 5 8 - - 0.0 - - - - - - -
25/07:30am 8.8 E 7 9 - - 0.0 - - - - - - -
25/07:00am 9.1 E 7 9 - - 0.0 - - - - - - -
25/06:30am 9.5 E 5 7 - - 0.0 - - - - - - -
25/06:00am 9.8 E 3 4 - - 0.0 - - - - - - -
25/05:30am 9.7 ESE 3 4 - - 0.0 - - - - - - -
25/05:00am 9.8 E 4 6 - - 0.0 - - - - - - -
25/04:30am 9.8 ESE 2 4 - - 0.0 - - - - - - -
25/04:00am 9.8 ESE 3 4 - - 0.0 - - - - - - -
25/03:30am 9.7 ESE 2 4 - - 0.0 - - - - - - -
25/03:00am 9.8 E 4 5 - - 0.0 - - - - - - -
25/02:30am 9.9 ENE 4 4 - - 0.0 - - - - - - -
25/02:00am 9.7 ENE 3 4 - - 0.0 - - - - - - -
25/01:30am 9.8 ENE 3 5 - - 0.0 - - - - - - -
25/01:00am 10.0 NE 4 5 - - 0.0 - - - - - - -
25/12:30am 9.9 ENE 4 6 - - 0.0 - - - - - - -
25/12:00am 9.9 ENE 5 6 - - 0.0 - - - - - - -
 
Date/Time
WST
Temp
°C
Wind Pressure Rain since
9am
mm
Weather Cloud Vis
km
Sea
Height
m
Swell
Dir  Spd
kts
Gust
kts
hPa Trend Height
m
Period
s
Dir
24/11:30pm 10.0 ENE 6 9 - - 0.0 - - - - - - -
24/11:00pm 10.4 ENE 4 6 - - 0.0 - - - - - - -
24/10:30pm 10.1 E 3 4 - - 0.0 - - - - - - -
24/10:00pm 9.7 ENE 4 4 - - 0.0 - - - - - - -
24/09:30pm 10.1 ENE 3 4 - - 0.0 - - - - - - -
24/09:00pm 10.7 ESE 3 4 - - 0.0 - - - - - - -
24/08:30pm 11.4 SE 3 4 - - 0.0 - - - - - - -
24/08:00pm 11.8 ESE 3 5 - - 0.0 - - - - - - -

Other Formats:

Comma delimited format used in spreadsheet applications
http://www.bom.gov.au/fwo/IDW60701/IDW60701.94614.axf

JavaScript Object Notation format (JSON) in row-major order
http://www.bom.gov.au/fwo/IDW60701/IDW60701.94614.json